Página principal
METAR-TAF:

METAR-TAF

Aeroportos :

Aeroporto de Madrid-Barajas

Madrid, Espanha

latitude: 40-27N, longitude: 003-33W, altura: 609 m

Observação actual do tempo

O boletim foi feito há 34 minutos, às 02:30 UTC
Vento 2 kt de su-sudeste
Temperatura 0°C
Humidade 100%
Pressão 1016 hPa
Visibilidade 10 km ou mais
sem nuvens abaixo de 1500 metros e sem cumulonimbus

METAR: LEMD 140230Z 16002KT CAVOK 00/M00 Q1016 NOSIG

Hora: 04:04 (03:04 UTC)

Previsão

O boletim foi feito há 4 horas e 4 minutos, às 23:00 UTC
Previsão válida de 14 às 00 UTC a 15 às 06 UTC
Vento 6 kt de noroeste
Visibilidade 10 km ou mais
Nuvens fragmentadasa uma altura de 1800 ft

TAF: LEMD 132300Z 1400/1506 32006KT 9999 BKN018 TX10/1415Z TN03/1408Z

Observações e previsões do tempo de mais de 4000 aeroportos (mensagens METAR e TAF).

As estações disponíveis são os pontos amarelos e vermelhos sobre o mapa.

Mova o rato sobre o mapa para ver o nome da estação.

Depois clique no ponto para visualizar as observações e previsões meteorológicas.

Para alterar o mapa : clique nos botões verdes com uma cruz preta para aumentar o zoom; no botão verde com uma pitada de zoom; ou nas setas verdes para mapas adjacentes.


METAR-TAF: